Time;durP1;ratioP1;P1;durP2;ratioP2;P2;SDS_P1;SDS_P2;PMS_P1;PMS_P2;Temp;Humidity;BMP_temperature;BMP_pressure;BME280_temperature;BME280_humidity;BME280_pressure;Samples;Min_cycle;Max_cycle;Signal;HPM_P1;HPM_P2
2023/04/26 04:00:46;;;;;;;1999.90;999.90;;;;;;;;;;6275234;22;20183;-71
2023/04/26 04:03:31;;;;;;;1999.90;999.90;;;;;;;;;;6305188;22;20167;-69
2023/04/26 04:06:15;;;;;;;1999.90;999.90;;;;;;;;;;6305699;22;20164;-69
2023/04/26 04:09:00;;;;;;;1999.90;999.90;;;;;;;;;;6305617;22;20623;-70
2023/04/26 04:11:45;;;;;;;1999.90;999.90;;;;;;;;;;6287375;22;20242;-70
2023/04/26 04:14:30;;;;;;;1999.90;999.90;;;;;;;;;;6274174;22;20188;-72
2023/04/26 04:17:17;;;;;;;1999.90;999.90;;;;;;;;;;6274288;22;20634;-71
2023/04/26 04:20:04;;;;;;;1999.90;999.90;;;;;;;;;;6273764;22;20212;-72
2023/04/26 04:22:49;;;;;;;1999.90;999.90;;;;;;;;;;6275171;22;20168;-72
2023/04/26 04:25:34;;;;;;;1999.90;999.90;;;;;;;;;;6273695;22;20652;-72
2023/04/26 04:28:21;;;;;;;1999.90;999.90;;;;;;;;;;6274669;22;20426;-72
2023/04/26 04:31:08;;;;;;;1999.90;999.90;;;;;;;;;;6275060;22;20630;-72
2023/04/26 04:33:54;;;;;;;1999.90;999.90;;;;;;;;;;6274664;22;20164;-72
2023/04/26 04:36:39;;;;;;;1999.90;999.90;;;;;;;;;;6274645;22;20192;-72
2023/04/26 04:39:24;;;;;;;1999.90;999.90;;;;;;;;;;6274388;22;20262;-72
2023/04/26 04:42:09;;;;;;;1999.90;999.90;;;;;;;;;;6274331;22;20372;-71
2023/04/26 04:44:54;;;;;;;1999.90;999.90;;;;;;;;;;6274137;22;20331;-72
2023/04/26 04:47:39;;;;;;;1999.90;999.90;;;;;;;;;;6274639;22;20168;-71
2023/04/26 04:50:25;;;;;;;1999.90;999.90;;;;;;;;;;6274339;22;20511;-72
2023/04/26 04:53:11;;;;;;;1999.90;999.90;;;;;;;;;;6274361;22;20168;-72
2023/04/26 04:55:56;;;;;;;1999.90;999.90;;;;;;;;;;6274907;22;20168;-71
2023/04/26 04:58:40;;;;;;;1999.90;999.90;;;;;;;;;;6273680;22;20191;-71
2023/04/26 05:01:25;;;;;;;1999.90;999.90;;;;;;;;;;6274061;22;20211;-71
2023/04/26 05:04:10;;;;;;;1999.90;999.90;;;;;;;;;;6274264;22;20211;-72
2023/04/26 05:06:57;;;;;;;1999.90;999.90;;;;;;;;;;6274125;22;20168;-70
2023/04/26 05:09:41;;;;;;;1999.90;999.90;;;;;;;;;;6274038;22;20303;-71
2023/04/26 05:12:26;;;;;;;1999.90;999.90;;;;;;;;;;6274278;22;20200;-72
2023/04/26 05:15:11;;;;;;;1999.90;999.90;;;;;;;;;;6273938;22;20648;-71
2023/04/26 05:17:58;;;;;;;1999.90;999.90;;;;;;;;;;6273997;22;20208;-71
2023/04/26 05:20:43;;;;;;;1999.90;999.90;;;;;;;;;;6274037;22;20207;-72
2023/04/26 05:23:29;;;;;;;1999.90;999.90;;;;;;;;;;6273957;22;20167;-72
2023/04/26 05:26:15;;;;;;;1999.90;999.90;;;;;;;;;;6274377;22;20520;-71
2023/04/26 05:29:00;;;;;;;1999.90;999.90;;;;;;;;;;6273522;22;20164;-71
2023/04/26 05:31:45;;;;;;;1999.90;999.90;;;;;;;;;;6274060;22;20503;-72
2023/04/26 05:34:31;;;;;;;1999.90;999.90;;;;;;;;;;6274168;22;20168;-72
2023/04/26 05:37:16;;;;;;;1999.90;999.90;;;;;;;;;;6273672;22;20508;-72
2023/04/26 05:40:03;;;;;;;1999.90;999.90;;;;;;;;;;6273842;22;20701;-70
2023/04/26 05:42:48;;;;;;;1999.90;999.90;;;;;;;;;;6274878;22;20640;-70
2023/04/26 05:45:33;;;;;;;1999.90;999.90;;;;;;;;;;6274743;22;20167;-71
2023/04/26 05:48:18;;;;;;;1999.90;999.90;;;;;;;;;;6274904;22;20694;-71
2023/04/26 05:51:03;;;;;;;1999.90;999.90;;;;;;;;;;6274806;22;20202;-70
2023/04/26 05:53:48;;;;;;;1999.90;999.90;;;;;;;;;;6274964;22;20512;-71
2023/04/26 05:56:34;;;;;;;1999.90;999.90;;;;;;;;;;6274930;22;20165;-68
2023/04/26 05:59:19;;;;;;;1999.90;999.90;;;;;;;;;;6274434;22;20195;-71
2023/04/26 06:02:04;;;;;;;1999.90;999.90;;;;;;;;;;6274726;22;20554;-71
2023/04/26 06:04:50;;;;;;;1999.90;999.90;;;;;;;;;;6274639;22;20632;-70
2023/04/26 06:07:35;;;;;;;1999.90;999.90;;;;;;;;;;6275203;22;20234;-71
2023/04/26 06:10:20;;;;;;;1999.90;999.90;;;;;;;;;;6273880;22;20165;-68
2023/04/26 06:13:07;;;;;;;1999.90;999.90;;;;;;;;;;6275002;22;20164;-68
2023/04/26 06:15:52;;;;;;;1999.90;999.90;;;;;;;;;;6275126;22;20168;-70
2023/04/26 06:18:37;;;;;;;1999.90;999.90;;;;;;;;;;6274920;22;20187;-71
2023/04/26 06:21:22;;;;;;;1999.90;999.90;;;;;;;;;;6273032;22;20363;-70
2023/04/26 06:24:07;;;;;;;1999.90;999.90;;;;;;;;;;6274475;22;20684;-71
2023/04/26 06:26:52;;;;;;;1999.90;999.90;;;;;;;;;;6273563;22;20170;-71
2023/04/26 06:29:40;;;;;;;1999.90;999.90;;;;;;;;;;6274086;22;20179;-70
2023/04/26 06:32:25;;;;;;;1999.90;999.90;;;;;;;;;;6271930;22;20246;-69
2023/04/26 06:35:10;;;;;;;1999.90;999.90;;;;;;;;;;6273743;22;20294;-71
2023/04/26 06:37:55;;;;;;;1999.90;999.90;;;;;;;;;;6273029;22;20513;-71
2023/04/26 06:40:40;;;;;;;1999.90;999.90;;;;;;;;;;6272929;22;20256;-70
2023/04/26 06:43:25;;;;;;;1999.90;999.90;;;;;;;;;;6273833;22;20254;-69
2023/04/26 06:46:11;;;;;;;1999.90;999.90;;;;;;;;;;6274487;22;20182;-68
2023/04/26 06:48:56;;;;;;;1999.90;999.90;;;;;;;;;;6274693;22;20628;-70
2023/04/26 06:51:41;;;;;;;1999.90;999.90;;;;;;;;;;6274616;22;20206;-70
2023/04/26 06:54:27;;;;;;;1999.90;999.90;;;;;;;;;;6274383;22;20163;-72
2023/04/26 06:57:12;;;;;;;1999.90;999.90;;;;;;;;;;6274645;22;20167;-70
2023/04/26 06:59:57;;;;;;;1999.90;999.90;;;;;;;;;;6274406;22;20187;-69
2023/04/26 07:02:44;;;;;;;1999.90;999.90;;;;;;;;;;6274488;22;20723;-69
2023/04/26 07:05:29;;;;;;;1999.90;999.90;;;;;;;;;;6274339;22;20168;-70
2023/04/26 07:08:14;;;;;;;1999.90;999.90;;;;;;;;;;6274603;22;20649;-69
2023/04/26 07:10:59;;;;;;;1999.90;999.90;;;;;;;;;;6272196;22;20785;-69
2023/04/26 07:13:44;;;;;;;1999.90;999.90;;;;;;;;;;6274515;22;20264;-69
2023/04/26 07:16:29;;;;;;;1999.90;999.90;;;;;;;;;;6274435;22;20170;-70
2023/04/26 07:19:15;;;;;;;1999.90;999.90;;;;;;;;;;6274367;22;20171;-68
2023/04/26 07:22:01;;;;;;;1999.90;999.90;;;;;;;;;;6274430;22;20543;-69
2023/04/26 07:24:46;;;;;;;1999.90;999.90;;;;;;;;;;6274220;22;20520;-70
2023/04/26 07:27:31;;;;;;;1999.90;999.90;;;;;;;;;;6274645;22;20476;-69
2023/04/26 07:30:16;;;;;;;1999.90;999.90;;;;;;;;;;6274385;22;20678;-71
2023/04/26 07:33:01;;;;;;;1999.90;999.90;;;;;;;;;;6274484;22;20663;-69
2023/04/26 07:35:53;;;;;;;1999.90;999.90;;;;;;;;;;6274389;22;20164;-69
2023/04/26 07:38:38;;;;;;;1999.90;999.90;;;;;;;;;;6275926;22;20178;-69
2023/04/26 07:41:23;;;;;;;1999.90;999.90;;;;;;;;;;6274520;22;20690;-70
2023/04/26 07:44:08;;;;;;;1999.90;999.90;;;;;;;;;;6274229;22;20175;-69
2023/04/26 07:46:52;;;;;;;1999.90;999.90;;;;;;;;;;6275272;22;20286;-70
2023/04/26 07:49:37;;;;;;;1999.90;999.90;;;;;;;;;;6275756;22;20167;-69
2023/04/26 07:52:24;;;;;;;1999.90;999.90;;;;;;;;;;6275883;22;20203;-69
2023/04/26 07:55:09;;;;;;;1999.90;999.90;;;;;;;;;;6274880;22;20172;-70
2023/04/26 07:57:54;;;;;;;1999.90;999.90;;;;;;;;;;6274059;22;20394;-71
2023/04/26 08:00:39;;;;;;;1999.90;999.90;;;;;;;;;;6274886;22;20215;-70
2023/04/26 08:03:25;;;;;;;1999.90;999.90;;;;;;;;;;6274797;22;20238;-70
2023/04/26 08:06:10;;;;;;;1999.90;999.90;;;;;;;;;;6275266;22;20172;-70
2023/04/26 08:08:56;;;;;;;1999.90;999.90;;;;;;;;;;6274645;22;20619;-70
2023/04/26 08:11:41;;;;;;;1999.90;999.90;;;;;;;;;;6275122;22;20198;-70
2023/04/26 08:14:27;;;;;;;1999.90;999.90;;;;;;;;;;6274921;22;20167;-70
2023/04/26 08:17:12;;;;;;;1999.90;999.90;;;;;;;;;;6274947;22;20171;-70
2023/04/26 08:19:57;;;;;;;1999.90;999.90;;;;;;;;;;6274354;22;20557;-70
2023/04/26 08:22:42;;;;;;;1999.90;999.90;;;;;;;;;;6274462;22;20207;-70
2023/04/26 08:25:28;;;;;;;1999.90;999.90;;;;;;;;;;6274815;22;20211;-70
2023/04/26 08:28:14;;;;;;;1999.90;999.90;;;;;;;;;;6274622;22;20267;-70
2023/04/26 08:30:59;;;;;;;1999.90;999.90;;;;;;;;;;6274979;22;20198;-70
2023/04/26 08:33:44;;;;;;;1999.90;999.90;;;;;;;;;;6272465;22;20962;-70
2023/04/26 08:36:31;;;;;;;1999.90;999.90;;;;;;;;;;6274097;22;20499;-70
2023/04/26 08:39:16;;;;;;;1999.90;999.90;;;;;;;;;;6274570;22;20169;-70
2023/04/26 08:42:07;;;;;;;1999.90;999.90;;;;;;;;;;6274203;22;20200;-69
2023/04/26 08:44:53;;;;;;;1999.90;999.90;;;;;;;;;;6273918;22;20231;-70
2023/04/26 08:47:41;;;;;;;1999.90;999.90;;;;;;;;;;6274389;22;20383;-70
2023/04/26 08:50:26;;;;;;;1999.90;999.90;;;;;;;;;;6274422;22;20160;-70
2023/04/26 08:53:14;;;;;;;1999.90;999.90;;;;;;;;;;6274704;22;20164;-69
2023/04/26 08:56:00;;;;;;;1999.90;999.90;;;;;;;;;;6273740;22;20628;-69
2023/04/26 08:58:46;;;;;;;1999.90;999.90;;;;;;;;;;6274622;22;20172;-70
2023/04/26 09:01:31;;;;;;;1999.90;999.90;;;;;;;;;;6274252;22;20595;-69
2023/04/26 09:04:16;;;;;;;1999.90;999.90;;;;;;;;;;6272956;22;20211;-70
2023/04/26 09:07:02;;;;;;;1999.90;999.90;;;;;;;;;;6274050;22;20167;-70
2023/04/26 09:09:49;;;;;;;1999.90;999.90;;;;;;;;;;6273892;22;20278;-69
2023/04/26 09:12:34;;;;;;;1999.90;999.90;;;;;;;;;;6274560;22;20206;-70
2023/04/26 09:15:22;;;;;;;1999.90;999.90;;;;;;;;;;6274262;22;20183;-69
2023/04/26 09:18:17;;;;;;;1999.90;999.90;;;;;;;;;;6273773;22;20608;-70
2023/04/26 09:21:03;;;;;;;1999.90;999.90;;;;;;;;;;6273555;22;20395;-70
2023/04/26 09:23:59;;;;;;;1999.90;999.90;;;;;;;;;;6272836;22;20183;-69
2023/04/26 09:26:44;;;;;;;1999.90;999.90;;;;;;;;;;6272908;22;20672;-70
2023/04/26 09:29:28;;;;;;;1999.90;999.90;;;;;;;;;;6273634;22;20185;-69
2023/04/26 09:32:15;;;;;;;1999.90;999.90;;;;;;;;;;6274433;22;20201;-69
2023/04/26 09:35:00;;;;;;;1999.90;999.90;;;;;;;;;;6273512;22;20709;-69
2023/04/26 09:37:51;;;;;;;1999.90;999.90;;;;;;;;;;6273906;22;20168;-69
2023/04/26 09:40:37;;;;;;;1999.90;999.90;;;;;;;;;;6274426;22;20191;-69
2023/04/26 09:43:22;;;;;;;1999.90;999.90;;;;;;;;;;6273068;22;20171;-69
2023/04/26 09:46:07;;;;;;;1999.90;999.90;;;;;;;;;;6273746;22;20216;-70
2023/04/26 09:49:02;;;;;;;1999.90;999.90;;;;;;;;;;6273569;22;20169;-69
2023/04/26 09:51:59;;;;;;;1999.90;999.90;;;;;;;;;;6273567;22;20538;-69
2023/04/26 09:54:45;;;;;;;1999.90;999.90;;;;;;;;;;6273650;22;20180;-69
2023/04/26 09:57:31;;;;;;;1999.90;999.90;;;;;;;;;;6274191;22;20165;-69
2023/04/26 10:00:16;;;;;;;1999.90;999.90;;;;;;;;;;6273402;22;20192;-69
2023/04/26 10:03:01;;;;;;;1999.90;999.90;;;;;;;;;;6273548;22;20248;-69
2023/04/26 10:05:48;;;;;;;1999.90;999.90;;;;;;;;;;6272799;22;20506;-69
2023/04/26 10:08:33;;;;;;;1999.90;999.90;;;;;;;;;;6273540;22;20697;-69
2023/04/26 10:11:18;;;;;;;1999.90;999.90;;;;;;;;;;6273110;22;20395;-70
2023/04/26 10:14:04;;;;;;;1999.90;999.90;;;;;;;;;;6273538;22;20189;-70
2023/04/26 10:16:49;;;;;;;1999.90;999.90;;;;;;;;;;6273730;22;20237;-70
2023/04/26 10:19:35;;;;;;;1999.90;999.90;;;;;;;;;;6271463;22;20501;-70
2023/04/26 10:22:24;;;;;;;1999.90;999.90;;;;;;;;;;6273742;22;20282;-70
2023/04/26 10:25:09;;;;;;;1999.90;999.90;;;;;;;;;;6273079;22;20170;-71
2023/04/26 10:27:54;;;;;;;1999.90;999.90;;;;;;;;;;6274773;22;20172;-71
2023/04/26 10:30:55;;;;;;;1999.90;999.90;;;;;;;;;;6274646;22;20221;-71
2023/04/26 10:33:40;;;;;;;1999.90;999.90;;;;;;;;;;6274819;22;20170;-70
2023/04/26 10:36:25;;;;;;;1999.90;999.90;;;;;;;;;;6274731;22;20168;-71
2023/04/26 10:39:22;;;;;;;1999.90;999.90;;;;;;;;;;6274763;22;20169;-71
2023/04/26 10:42:22;;;;;;;1999.90;999.90;;;;;;;;;;6274521;22;20207;-71
2023/04/26 10:45:25;;;;;;;1999.90;999.90;;;;;;;;;;6274553;22;20203;-70
2023/04/26 10:48:14;;;;;;;1999.90;999.90;;;;;;;;;;6276304;22;20222;-71
2023/04/26 10:51:08;;;;;;;1999.90;999.90;;;;;;;;;;6274505;22;20676;-71
2023/04/26 10:54:00;;;;;;;1999.90;999.90;;;;;;;;;;6274493;22;20575;-70
2023/04/26 10:56:54;;;;;;;1999.90;999.90;;;;;;;;;;6272951;22;20367;-71
2023/04/26 10:59:38;;;;;;;1999.90;999.90;;;;;;;;;;6274651;22;20205;-70
2023/04/26 11:02:38;;;;;;;1999.90;999.90;;;;;;;;;;6274482;22;20211;-72
2023/04/26 11:05:33;;;;;;;1999.90;999.90;;;;;;;;;;6274422;22;20164;-72
2023/04/26 11:08:19;;;;;;;1999.90;999.90;;;;;;;;;;6274685;22;20550;-70
2023/04/26 11:11:07;;;;;;;1999.90;999.90;;;;;;;;;;6274413;22;20202;-71
2023/04/26 11:13:54;;;;;;;1999.90;999.90;;;;;;;;;;6276556;22;20170;-70
2023/04/26 11:16:40;;;;;;;1999.90;999.90;;;;;;;;;;6276645;22;20540;-71
2023/04/26 11:19:26;;;;;;;1999.90;999.90;;;;;;;;;;6276857;22;20213;-71
2023/04/26 11:22:11;;;;;;;1999.90;999.90;;;;;;;;;;6276372;22;20214;-70
2023/04/26 11:24:56;;;;;;;1999.90;999.90;;;;;;;;;;6276182;22;20170;-72
2023/04/26 11:27:42;;;;;;;1999.90;999.90;;;;;;;;;;6276419;22;20170;-71
2023/04/26 11:30:32;;;;;;;1999.90;999.90;;;;;;;;;;6276312;22;20181;-71
2023/04/26 11:33:18;;;;;;;1999.90;999.90;;;;;;;;;;6276468;22;20241;-71
2023/04/26 11:36:03;;;;;;;1999.90;999.90;;;;;;;;;;6276211;22;20167;-71
2023/04/26 11:38:48;;;;;;;1999.90;999.90;;;;;;;;;;6276303;22;20169;-71
2023/04/26 11:41:33;;;;;;;1999.90;999.90;;;;;;;;;;6276083;22;20211;-71
2023/04/26 11:44:19;;;;;;;1999.90;999.90;;;;;;;;;;6274388;22;20377;-71
2023/04/26 11:47:06;;;;;;;1999.90;999.90;;;;;;;;;;6276668;22;20164;-72
2023/04/26 11:49:51;;;;;;;1999.90;999.90;;;;;;;;;;6276175;22;20167;-71
2023/04/26 11:52:37;;;;;;;1999.90;999.90;;;;;;;;;;6276201;22;20639;-71
2023/04/26 11:55:27;;;;;;;1999.90;999.90;;;;;;;;;;6275942;22;20675;-72
2023/04/26 11:58:14;;;;;;;1999.90;999.90;;;;;;;;;;6274484;22;20368;-71
2023/04/26 12:01:00;;;;;;;1999.90;999.90;;;;;;;;;;6275782;22;20307;-70
2023/04/26 12:03:49;;;;;;;1999.90;999.90;;;;;;;;;;6276053;22;20164;-71
2023/04/26 12:06:41;;;;;;;1999.90;999.90;;;;;;;;;;6276103;22;20214;-72
2023/04/26 12:09:27;;;;;;;1999.90;999.90;;;;;;;;;;6276390;22;20164;-71
2023/04/26 12:12:12;;;;;;;1999.90;999.90;;;;;;;;;;6275945;22;20200;-71
2023/04/26 12:14:57;;;;;;;1999.90;999.90;;;;;;;;;;6275824;22;20243;-71
2023/04/26 12:17:51;;;;;;;1999.90;999.90;;;;;;;;;;6275995;22;20172;-71
2023/04/26 12:20:38;;;;;;;1999.90;999.90;;;;;;;;;;6275630;22;20520;-71
2023/04/26 12:23:23;;;;;;;1999.90;999.90;;;;;;;;;;6275662;22;20168;-69
2023/04/26 12:26:10;;;;;;;1999.90;999.90;;;;;;;;;;6275740;22;20164;-71
2023/04/26 12:28:55;;;;;;;1999.90;999.90;;;;;;;;;;6276062;22;20230;-71
2023/04/26 12:31:40;;;;;;;1999.90;999.90;;;;;;;;;;6275920;22;20199;-70
2023/04/26 12:34:25;;;;;;;1999.90;999.90;;;;;;;;;;6275939;22;20247;-71
2023/04/26 12:37:11;;;;;;;1999.90;999.90;;;;;;;;;;6276009;22;20168;-70
2023/04/26 12:39:56;;;;;;;1999.90;999.90;;;;;;;;;;6275746;22;20211;-70
2023/04/26 12:42:41;;;;;;;1999.90;999.90;;;;;;;;;;6275640;22;20815;-71
2023/04/26 12:45:26;;;;;;;1999.90;999.90;;;;;;;;;;6274606;22;20355;-71
2023/04/26 12:48:11;;;;;;;1999.90;999.90;;;;;;;;;;6275997;22;20172;-70
2023/04/26 12:50:56;;;;;;;1999.90;999.90;;;;;;;;;;6275456;22;20534;-69
2023/04/26 12:53:42;;;;;;;1999.90;999.90;;;;;;;;;;6271487;22;20180;-71
2023/04/26 12:56:28;;;;;;;1999.90;999.90;;;;;;;;;;6272452;22;20237;-70
2023/04/26 12:59:13;;;;;;;1999.90;999.90;;;;;;;;;;6274054;22;20185;-71
2023/04/26 13:01:58;;;;;;;1999.90;999.90;;;;;;;;;;6273149;22;20330;-69
2023/04/26 13:04:43;;;;;;;1999.90;999.90;;;;;;;;;;6273699;22;20172;-70
2023/04/26 13:07:28;;;;;;;1999.90;999.90;;;;;;;;;;6273149;22;20183;-69
2023/04/26 13:13:31;;;;;;;1999.90;999.90;;;;;;;;;;6273532;22;20291;-71
2023/04/26 13:16:16;;;;;;;1999.90;999.90;;;;;;;;;;6273978;22;20215;-71
2023/04/26 13:19:01;;;;;;;1999.90;999.90;;;;;;;;;;6271963;22;20422;-70
2023/04/26 13:21:46;;;;;;;1999.90;999.90;;;;;;;;;;6274404;22;20203;-69
2023/04/26 13:24:31;;;;;;;1999.90;999.90;;;;;;;;;;6274693;22;20231;-70
2023/04/26 13:27:16;;;;;;;1999.90;999.90;;;;;;;;;;6275158;22;20171;-71
2023/04/26 13:30:02;;;;;;;1999.90;999.90;;;;;;;;;;6272778;22;20286;-70
2023/04/26 13:32:48;;;;;;;1999.90;999.90;;;;;;;;;;6274386;22;20399;-69
2023/04/26 13:35:33;;;;;;;1999.90;999.90;;;;;;;;;;6273966;22;20247;-71
2023/04/26 13:38:18;;;;;;;1999.90;999.90;;;;;;;;;;6274847;22;20227;-68
2023/04/26 13:41:03;;;;;;;1999.90;999.90;;;;;;;;;;6274600;22;20753;-70
2023/04/26 13:43:48;;;;;;;1999.90;999.90;;;;;;;;;;6274782;22;20210;-69
2023/04/26 13:46:35;;;;;;;1999.90;999.90;;;;;;;;;;6274643;22;20164;-68
2023/04/26 13:49:21;;;;;;;1999.90;999.90;;;;;;;;;;6274691;22;20180;-68
2023/04/26 13:52:06;;;;;;;1999.90;999.90;;;;;;;;;;6274475;22;20200;-70
2023/04/26 13:54:51;;;;;;;1999.90;999.90;;;;;;;;;;6274496;22;20432;-69
2023/04/26 13:57:36;;;;;;;1999.90;999.90;;;;;;;;;;6274712;22;20499;-70
2023/04/26 14:00:22;;;;;;;1999.90;999.90;;;;;;;;;;6274469;22;20168;-69
2023/04/26 14:03:08;;;;;;;1999.90;999.90;;;;;;;;;;6274537;22;20192;-71
2023/04/26 14:05:54;;;;;;;1999.90;999.90;;;;;;;;;;6274608;22;20510;-69
2023/04/26 14:08:39;;;;;;;1999.90;999.90;;;;;;;;;;6273368;22;20168;-70
2023/04/26 14:11:24;;;;;;;1999.90;999.90;;;;;;;;;;6274598;22;20200;-71
2023/04/26 14:14:09;;;;;;;1999.90;999.90;;;;;;;;;;6273648;22;20176;-69
2023/04/26 14:16:54;;;;;;;1999.90;999.90;;;;;;;;;;6273648;22;20250;-70
2023/04/26 14:19:41;;;;;;;1999.90;999.90;;;;;;;;;;6273966;22;20418;-70
2023/04/26 14:22:26;;;;;;;1999.90;999.90;;;;;;;;;;6274325;22;20281;-69
2023/04/26 14:25:11;;;;;;;1999.90;999.90;;;;;;;;;;6274276;22;20260;-71
2023/04/26 14:27:56;;;;;;;1999.90;999.90;;;;;;;;;;6274598;22;20548;-71
2023/04/26 14:30:41;;;;;;;1999.90;999.90;;;;;;;;;;6274457;22;20203;-71
2023/04/26 14:33:26;;;;;;;1999.90;999.90;;;;;;;;;;6274740;22;20207;-71
2023/04/26 14:36:12;;;;;;;1999.90;999.90;;;;;;;;;;6274226;22;20172;-71
2023/04/26 14:38:57;;;;;;;1999.90;999.90;;;;;;;;;;6274409;22;20167;-72
2023/04/26 14:41:42;;;;;;;1999.90;999.90;;;;;;;;;;6274279;22;20208;-71
2023/04/26 14:44:28;;;;;;;1999.90;999.90;;;;;;;;;;6274224;22;20164;-71
2023/04/26 14:47:13;;;;;;;1999.90;999.90;;;;;;;;;;6275857;22;20603;-71
2023/04/26 14:49:58;;;;;;;1999.90;999.90;;;;;;;;;;6276477;22;20171;-71
2023/04/26 14:52:45;;;;;;;1999.90;999.90;;;;;;;;;;6276345;22;20199;-72
2023/04/26 14:55:30;;;;;;;1999.90;999.90;;;;;;;;;;6274589;22;20446;-71
2023/04/26 14:58:15;;;;;;;1999.90;999.90;;;;;;;;;;6276530;22;20816;-71
2023/04/26 15:01:01;;;;;;;1999.90;999.90;;;;;;;;;;6276053;22;20211;-71
2023/04/26 15:03:46;;;;;;;1999.90;999.90;;;;;;;;;;6275502;22;20163;-69
2023/04/26 15:06:32;;;;;;;1999.90;999.90;;;;;;;;;;6276845;22;20555;-71
2023/04/26 15:09:19;;;;;;;1999.90;999.90;;;;;;;;;;6271722;22;20367;-70
2023/04/26 15:12:05;;;;;;;1999.90;999.90;;;;;;;;;;6274015;22;20207;-71
2023/04/26 15:14:50;;;;;;;1999.90;999.90;;;;;;;;;;6274209;22;20164;-69
2023/04/26 15:17:35;;;;;;;1999.90;999.90;;;;;;;;;;6274575;22;20221;-69
2023/04/26 15:20:20;;;;;;;1999.90;999.90;;;;;;;;;;6276322;22;20500;-70
2023/04/26 15:23:05;;;;;;;1999.90;999.90;;;;;;;;;;6274335;22;20215;-69
2023/04/26 15:25:51;;;;;;;1999.90;999.90;;;;;;;;;;6274840;22;20172;-70
2023/04/26 15:28:36;;;;;;;1999.90;999.90;;;;;;;;;;6274489;22;20190;-71
2023/04/26 15:31:23;;;;;;;1999.90;999.90;;;;;;;;;;6275657;22;20567;-72
2023/04/26 15:34:07;;;;;;;1999.90;999.90;;;;;;;;;;6275227;22;20511;-71
2023/04/26 15:36:52;;;;;;;1999.90;999.90;;;;;;;;;;6275835;22;20168;-69
2023/04/26 15:39:37;;;;;;;1999.90;999.90;;;;;;;;;;6277539;22;20168;-71
2023/04/26 15:42:24;;;;;;;1999.90;999.90;;;;;;;;;;6276880;22;20954;-71
2023/04/26 15:45:09;;;;;;;1999.90;999.90;;;;;;;;;;6278660;22;20213;-71
2023/04/26 15:47:55;;;;;;;1999.90;999.90;;;;;;;;;;6277940;22;20254;-71
2023/04/26 15:50:40;;;;;;;1999.90;999.90;;;;;;;;;;6276022;22;20251;-71
2023/04/26 15:53:25;;;;;;;1999.90;999.90;;;;;;;;;;6275609;22;20216;-73
2023/04/26 15:56:14;;;;;;;1999.90;999.90;;;;;;;;;;6274087;22;20394;-71
2023/04/26 15:59:00;;;;;;;1999.90;999.90;;;;;;;;;;6275004;22;20171;-73
2023/04/26 16:01:45;;;;;;;1999.90;999.90;;;;;;;;;;6275178;22;20273;-71
2023/04/26 16:04:30;;;;;;;1999.90;999.90;;;;;;;;;;6275769;22;20205;-71
2023/04/26 16:07:15;;;;;;;1999.90;999.90;;;;;;;;;;6274954;22;20170;-72
2023/04/26 16:10:00;;;;;;;1999.90;999.90;;;;;;;;;;6275312;22;20630;-72
2023/04/26 16:12:45;;;;;;;1999.90;999.90;;;;;;;;;;6275441;22;20167;-72
2023/04/26 16:15:31;;;;;;;1999.90;999.90;;;;;;;;;;6275596;22;20247;-72
2023/04/26 16:18:16;;;;;;;1999.90;999.90;;;;;;;;;;6275764;22;20171;-71
2023/04/26 16:21:05;;;;;;;1999.90;999.90;;;;;;;;;;6274234;22;20207;-71
2023/04/26 16:23:50;;;;;;;1999.90;999.90;;;;;;;;;;6275737;22;20237;-72
2023/04/26 16:26:35;;;;;;;1999.90;999.90;;;;;;;;;;6275750;22;20167;-70
2023/04/26 16:29:20;;;;;;;1999.90;999.90;;;;;;;;;;6275479;22;20468;-71
2023/04/26 16:32:07;;;;;;;1999.90;999.90;;;;;;;;;;6275579;22;20199;-72
2023/04/26 16:34:52;;;;;;;1999.90;999.90;;;;;;;;;;6275416;22;20211;-72
2023/04/26 16:37:38;;;;;;;1999.90;999.90;;;;;;;;;;6275682;22;20167;-72
2023/04/26 16:40:23;;;;;;;1999.90;999.90;;;;;;;;;;6275418;22;20214;-72
2023/04/26 16:43:13;;;;;;;1999.90;999.90;;;;;;;;;;6275369;22;20194;-72
2023/04/26 16:45:58;;;;;;;1999.90;999.90;;;;;;;;;;6274540;22;20615;-71
2023/04/26 16:48:44;;;;;;;1999.90;999.90;;;;;;;;;;6274647;22;20176;-72
2023/04/26 16:51:31;;;;;;;1999.90;999.90;;;;;;;;;;6275027;22;20205;-72
2023/04/26 16:54:15;;;;;;;1999.90;999.90;;;;;;;;;;6274908;22;20650;-71
2023/04/26 16:57:02;;;;;;;1999.90;999.90;;;;;;;;;;6275327;22;20247;-73
2023/04/26 16:59:47;;;;;;;1999.90;999.90;;;;;;;;;;6275030;22;20171;-72
2023/04/26 17:02:31;;;;;;;1999.90;999.90;;;;;;;;;;6274924;22;20285;-72
2023/04/26 17:05:18;;;;;;;1999.90;999.90;;;;;;;;;;6274349;22;20230;-71
2023/04/26 17:08:03;;;;;;;1999.90;999.90;;;;;;;;;;6275063;22;20210;-72
2023/04/26 17:10:50;;;;;;;1999.90;999.90;;;;;;;;;;6274951;22;20276;-71
2023/04/26 17:13:36;;;;;;;1999.90;999.90;;;;;;;;;;6275022;22;20674;-71
2023/04/26 17:16:20;;;;;;;1999.90;999.90;;;;;;;;;;6274923;22;20245;-72
2023/04/26 17:19:05;;;;;;;1999.90;999.90;;;;;;;;;;6273241;22;20185;-71
2023/04/26 17:21:52;;;;;;;1999.90;999.90;;;;;;;;;;6272462;22;20383;-71
2023/04/26 17:24:36;;;;;;;1999.90;999.90;;;;;;;;;;6274620;22;20243;-72
2023/04/26 17:27:23;;;;;;;1999.90;999.90;;;;;;;;;;6275275;22;20514;-72
2023/04/26 17:30:08;;;;;;;1999.90;999.90;;;;;;;;;;6274559;22;20214;-73
2023/04/26 17:32:53;;;;;;;1999.90;999.90;;;;;;;;;;6274376;22;20510;-72
2023/04/26 17:35:38;;;;;;;1999.90;999.90;;;;;;;;;;6272494;22;20760;-74
2023/04/26 17:38:24;;;;;;;1999.90;999.90;;;;;;;;;;6273621;22;20187;-72
2023/04/26 17:41:11;;;;;;;1999.90;999.90;;;;;;;;;;6273210;22;20203;-71
2023/04/26 17:43:56;;;;;;;1999.90;999.90;;;;;;;;;;6272571;22;20277;-71
2023/04/26 17:46:40;;;;;;;1999.90;999.90;;;;;;;;;;6274089;22;20249;-71
2023/04/26 17:49:25;;;;;;;1999.90;999.90;;;;;;;;;;6274898;22;20214;-71
2023/04/26 17:52:10;;;;;;;1999.90;999.90;;;;;;;;;;6274371;22;20203;-72
2023/04/26 17:54:56;;;;;;;1999.90;999.90;;;;;;;;;;6274209;22;20167;-71
2023/04/26 17:57:41;;;;;;;1999.90;999.90;;;;;;;;;;6274535;22;20168;-70
2023/04/26 18:00:26;;;;;;;1999.90;999.90;;;;;;;;;;6273455;22;20171;-72
2023/04/26 18:03:12;;;;;;;1999.90;999.90;;;;;;;;;;6274762;22;20679;-71
2023/04/26 18:05:57;;;;;;;1999.90;999.90;;;;;;;;;;6275028;22;20242;-71
2023/04/26 18:08:42;;;;;;;1999.90;999.90;;;;;;;;;;6274026;22;20954;-71
2023/04/26 18:11:28;;;;;;;1999.90;999.90;;;;;;;;;;6274775;22;20200;-70
2023/04/26 18:14:13;;;;;;;1999.90;999.90;;;;;;;;;;6274239;22;20627;-71
2023/04/26 18:16:58;;;;;;;1999.90;999.90;;;;;;;;;;6274730;22;20568;-71
2023/04/26 18:19:43;;;;;;;1999.90;999.90;;;;;;;;;;6274822;22;20219;-71
2023/04/26 18:22:28;;;;;;;1999.90;999.90;;;;;;;;;;6273033;22;20355;-71
2023/04/26 18:25:13;;;;;;;1999.90;999.90;;;;;;;;;;6274521;22;20513;-70
2023/04/26 18:27:59;;;;;;;1999.90;999.90;;;;;;;;;;6274909;22;20672;-71
2023/04/26 18:30:44;;;;;;;1999.90;999.90;;;;;;;;;;6274211;22;20542;-71
2023/04/26 18:33:30;;;;;;;1999.90;999.90;;;;;;;;;;6274608;22;20164;-70
2023/04/26 18:36:15;;;;;;;1999.90;999.90;;;;;;;;;;6274684;22;20187;-70
2023/04/26 18:39:00;;;;;;;1999.90;999.90;;;;;;;;;;6274329;22;20207;-70
2023/04/26 18:41:44;;;;;;;1999.90;999.90;;;;;;;;;;6274294;22;20250;-71
2023/04/26 18:44:31;;;;;;;1999.90;999.90;;;;;;;;;;6274057;22;20262;-70
2023/04/26 18:47:16;;;;;;;1999.90;999.90;;;;;;;;;;6274800;22;20179;-71
2023/04/26 18:50:01;;;;;;;1999.90;999.90;;;;;;;;;;6274182;22;20168;-70
2023/04/26 18:52:46;;;;;;;1999.90;999.90;;;;;;;;;;6273870;22;20160;-70
2023/04/26 18:55:31;;;;;;;1999.90;999.90;;;;;;;;;;6274453;22;20168;-70
2023/04/26 18:58:16;;;;;;;1999.90;999.90;;;;;;;;;;6274763;22;20203;-70
2023/04/26 19:01:02;;;;;;;1999.90;999.90;;;;;;;;;;6273356;22;20323;-70
2023/04/26 19:03:48;;;;;;;1999.90;999.90;;;;;;;;;;6274323;22;20519;-70
2023/04/26 19:06:32;;;;;;;1999.90;999.90;;;;;;;;;;6274688;22;20337;-70
2023/04/26 19:09:17;;;;;;;1999.90;999.90;;;;;;;;;;6274654;22;20167;-69
2023/04/26 19:12:04;;;;;;;1999.90;999.90;;;;;;;;;;6273644;22;20204;-70
2023/04/26 19:14:49;;;;;;;1999.90;999.90;;;;;;;;;;6273384;22;20763;-70
2023/04/26 19:17:36;;;;;;;1999.90;999.90;;;;;;;;;;6274178;22;20211;-70
2023/04/26 19:20:21;;;;;;;1999.90;999.90;;;;;;;;;;6274340;22;20625;-71
2023/04/26 19:23:06;;;;;;;1999.90;999.90;;;;;;;;;;6274565;22;20254;-70
2023/04/26 19:25:51;;;;;;;1999.90;999.90;;;;;;;;;;6273871;22;20563;-70
2023/04/26 19:28:36;;;;;;;1999.90;999.90;;;;;;;;;;6273898;22;20180;-70